メインページ
METAR-TAF:

METAR-TAF

空港 :

チュニス, チュニジア

チュニス・カルタゴ国際空港

緯度: 36-50N, 経度: 010-14E, 海抜: 3m

現時点の気象観測

当レポートは35分前の23:00(UTC)に作成
南/南東の風 6kt、東/南東からの間で変化する
気温 16°C
湿度 51%
気圧 1018 hPa
視程10km以上
高度2600ftの雲はほとんどない

METAR: DTTA 232300Z 15006KT 110V180 9999 FEW026 16/06 Q1018 NOSIG

時間: 00:35 (23:35 UTC)

予報

当レポートは6時間35分前の17:00(UTC)に作成
予報は23日の 18時(UTC)から 24日の 18時(UTC)まで有効
東/北東の風 6kt
視程10km以上
高度2600ftの雲はほとんどない
23日の 20時(UTC)から 23日の 22時(UTC)まで徐々に
東/南東の風 18kt

TAF: DTTA 231700Z 2318/2418 07006KT 9999 FEW026 BECMG 2320/2322 12018KT

4,000以上の空港の気象観測と天気予報(METAR報とTAF報)

利用可能な観測所は地図上に黄色い丸と赤い丸で示す。

丸の上にカーソルを重ねると観測所名を参照できる。

次にクリックすると気象観測と天気予報を参照できる。

マップの切り替え:黒色「×」印の緑ボタンをクリックして拡大、「-」印の緑ボタンをクリックして縮小、緑色の三角印をクリックして隣りの地図に切り替え


METAR-TAF: